Time;durP1;ratioP1;P1;durP2;ratioP2;P2;SDS_P1;SDS_P2;PMS_P1;PMS_P2;Temp;Humidity;BMP_temperature;BMP_pressure;BME280_temperature;BME280_humidity;BME280_pressure;Samples;Min_cycle;Max_cycle;Signal;HPM_P1;HPM_P2
2021/07/25 00:00:10;;;;;;;23.65;18.38;;;18.70;94.50;;;;;;5076108;28;20051;-74
2021/07/25 00:02:36;;;;;;;21.98;17.55;;;18.60;95.00;;;;;;5081662;28;20664;-73
2021/07/25 00:05:04;;;;;;;21.90;17.15;;;18.60;94.30;;;;;;5080887;28;20027;-74
2021/07/25 00:07:30;;;;;;;22.10;18.67;;;18.60;94.70;;;;;;5081789;28;20032;-73
2021/07/25 00:09:55;;;;;;;23.52;17.77;;;18.50;95.00;;;;;;5081000;28;20115;-74
2021/07/25 00:12:21;;;;;;;21.63;17.50;;;18.50;95.20;;;;;;5079936;28;20146;-74
2021/07/25 00:14:46;;;;;;;21.15;16.35;;;18.50;95.00;;;;;;5081045;28;20052;-73
2021/07/25 00:17:12;;;;;;;24.05;19.25;;;18.50;94.20;;;;;;5078630;28;20046;-73
2021/07/25 00:19:38;;;;;;;24.50;17.20;;;18.50;94.50;;;;;;5080236;28;20930;-73
2021/07/25 00:22:04;;;;;;;26.25;18.45;;;18.50;94.30;;;;;;5077829;28;20122;-74
2021/07/25 00:24:33;;;;;;;24.95;18.48;;;18.60;94.40;;;;;;5077705;28;20658;-74
2021/07/25 00:27:00;;;;;;;23.60;18.65;;;18.50;94.90;;;;;;5081829;28;20336;-74
2021/07/25 00:29:31;;;;;;;24.60;18.50;;;18.50;94.80;;;;;;5080449;28;20335;-74
2021/07/25 00:32:10;;;;;;;21.73;18.15;;;18.50;94.60;;;;;;5080148;28;20059;-74
2021/07/25 00:34:36;;;;;;;24.20;19.02;;;18.50;94.80;;;;;;5078561;28;20024;-73
2021/07/25 00:37:02;;;;;;;28.35;20.48;;;18.40;95.10;;;;;;5082460;28;20036;-74
2021/07/25 00:39:28;;;;;;;26.35;18.95;;;18.30;95.20;;;;;;5079598;28;20055;-73
2021/07/25 00:41:54;;;;;;;22.67;18.33;;;18.30;95.30;;;;;;5082791;28;20048;-74
2021/07/25 00:44:20;;;;;;;23.50;19.20;;;18.30;95.10;;;;;;5078654;28;20168;-74
2021/07/25 00:46:51;;;;;;;23.25;19.27;;;18.30;95.40;;;;;;5080655;28;20024;-74
2021/07/25 00:49:17;;;;;;;27.20;19.48;;;18.20;95.50;;;;;;5079462;28;20035;-74
2021/07/25 00:51:43;;;;;;;23.27;19.98;;;18.20;95.20;;;;;;5082635;28;20096;-73
2021/07/25 00:54:09;;;;;;;24.25;18.48;;;18.20;95.40;;;;;;5079671;28;20020;-74
2021/07/25 00:56:35;;;;;;;24.88;19.60;;;18.20;95.40;;;;;;5081022;28;20143;-74
2021/07/25 00:59:01;;;;;;;23.90;19.00;;;18.10;95.40;;;;;;5079882;28;20417;-74
2021/07/25 01:01:27;;;;;;;28.50;21.23;;;18.20;95.50;;;;;;5079831;28;20057;-74
2021/07/25 01:04:09;;;;;;;27.50;19.73;;;18.20;95.60;;;;;;5082126;28;20024;-74
2021/07/25 01:06:53;;;;;;;25.80;19.42;;;18.10;95.50;;;;;;5078179;28;20119;-74
2021/07/25 01:09:46;;;;;;;26.20;19.70;;;18.20;95.50;;;;;;5078864;28;20122;-74
2021/07/25 01:12:24;;;;;;;27.48;20.45;;;18.20;95.50;;;;;;5081003;28;20093;-74
2021/07/25 01:14:51;;;;;;;33.42;21.58;;;18.20;95.50;;;;;;5079813;28;20024;-74
2021/07/25 01:17:32;;;;;;;26.38;20.45;;;18.10;95.70;;;;;;5080509;28;20482;-74
2021/07/25 01:19:59;;;;;;;24.87;20.37;;;18.10;95.60;;;;;;5079034;28;20031;-74
2021/07/25 01:22:27;;;;;;;26.42;21.13;;;18.10;95.60;;;;;;5080484;28;20107;-74
2021/07/25 01:24:53;;;;;;;28.15;22.58;;;18.10;95.40;;;;;;5078822;28;20073;-74
2021/07/25 01:27:26;;;;;;;29.77;21.42;;;18.10;95.70;;;;;;5081490;28;20117;-74
2021/07/25 01:29:55;;;;;;;30.40;22.05;;;18.00;95.80;;;;;;5079109;28;20123;-74
2021/07/25 01:32:21;;;;;;;25.67;21.73;;;18.10;96.00;;;;;;5080983;28;20046;-74
2021/07/25 01:34:49;;;;;;;28.23;22.05;;;18.00;95.90;;;;;;5079542;28;20570;-74
2021/07/25 01:37:15;;;;;;;32.72;24.30;;;18.00;96.10;;;;;;5082593;28;20051;-74
2021/07/25 01:39:42;;;;;;;28.10;23.27;;;18.00;96.20;;;;;;5079134;28;20044;-74
2021/07/25 01:42:08;;;;;;;29.30;23.33;;;18.00;96.20;;;;;;5079538;28;20093;-74
2021/07/25 01:44:33;;;;;;;30.88;24.15;;;18.00;96.20;;;;;;5077278;28;20043;-74
2021/07/25 01:46:59;;;;;;;32.85;24.80;;;18.00;96.40;;;;;;5079437;28;20021;-74
2021/07/25 01:49:25;;;;;;;31.85;25.30;;;18.00;96.50;;;;;;5079947;28;20161;-74
2021/07/25 01:51:50;;;;;;;31.00;24.65;;;18.00;96.40;;;;;;5082312;28;20091;-74
2021/07/25 01:54:16;;;;;;;33.55;24.95;;;18.00;96.40;;;;;;5080275;28;20035;-74
2021/07/25 01:56:41;;;;;;;35.25;26.02;;;18.00;96.40;;;;;;5079086;28;20044;-74
2021/07/25 01:59:07;;;;;;;33.10;23.60;;;18.00;96.40;;;;;;5079880;28;20077;-74
2021/07/25 02:01:32;;;;;;;37.65;26.25;;;18.00;96.50;;;;;;5078047;28;20046;-74
2021/07/25 02:03:58;;;;;;;35.92;24.98;;;18.00;96.50;;;;;;5080012;28;20094;-74
2021/07/25 02:06:24;;;;;;;32.17;23.92;;;18.00;96.40;;;;;;5076907;28;20032;-74
2021/07/25 02:08:50;;;;;;;33.33;25.23;;;18.00;96.40;;;;;;5079895;28;20044;-74
2021/07/25 02:11:16;;;;;;;30.48;24.55;;;18.00;96.50;;;;;;5081355;28;20036;-74
2021/07/25 02:13:41;;;;;;;32.85;23.77;;;18.00;96.50;;;;;;5079423;28;20096;-74
2021/07/25 02:16:07;;;;;;;30.10;24.35;;;18.00;96.50;;;;;;5079466;28;20051;-74
2021/07/25 02:18:33;;;;;;;33.88;25.67;;;18.00;96.60;;;;;;5079429;28;20104;-74
2021/07/25 02:20:58;;;;;;;31.98;25.25;;;18.00;96.60;;;;;;5080552;28;20032;-74
2021/07/25 02:23:24;;;;;;;33.42;25.83;;;18.00;96.60;;;;;;5079121;28;20024;-74
2021/07/25 02:25:49;;;;;;;33.42;25.88;;;18.00;96.50;;;;;;5076784;28;20052;-73
2021/07/25 02:28:15;;;;;;;36.15;26.13;;;18.00;96.60;;;;;;5080312;28;20063;-74
2021/07/25 02:30:40;;;;;;;34.13;25.88;;;18.00;96.60;;;;;;5082540;28;21370;-74
2021/07/25 02:33:06;;;;;;;36.30;27.33;;;18.00;96.70;;;;;;5081917;28;20073;-74
2021/07/25 02:35:32;;;;;;;34.50;27.10;;;18.10;96.80;;;;;;5084059;28;20069;-74
2021/07/25 02:37:58;;;;;;;38.17;27.38;;;18.10;96.80;;;;;;5085381;28;20095;-74
2021/07/25 02:40:24;;;;;;;35.55;28.20;;;18.10;96.80;;;;;;5085360;28;20036;-74
2021/07/25 02:42:50;;;;;;;43.22;29.52;;;18.10;96.90;;;;;;5085055;28;20085;-74
2021/07/25 02:45:16;;;;;;;40.38;29.50;;;18.10;97.10;;;;;;5083332;28;20028;-73
2021/07/25 02:47:41;;;;;;;40.88;30.92;;;18.10;97.10;;;;;;5086166;28;20369;-75
2021/07/25 02:50:08;;;;;;;43.78;31.33;;;18.10;97.10;;;;;;5082685;28;20028;-74
2021/07/25 02:52:34;;;;;;;38.22;29.30;;;18.10;97.10;;;;;;5085823;28;20485;-74
2021/07/25 02:54:59;;;;;;;42.20;31.15;;;18.10;97.10;;;;;;5081169;28;20226;-74
2021/07/25 02:57:25;;;;;;;44.50;32.05;;;18.10;97.20;;;;;;5082519;28;20040;-74
2021/07/25 02:59:51;;;;;;;46.15;32.97;;;18.10;97.20;;;;;;5080272;28;20704;-74
2021/07/25 03:02:17;;;;;;;43.90;30.15;;;18.10;97.30;;;;;;5084138;28;20040;-74
2021/07/25 03:04:42;;;;;;;42.03;30.73;;;18.10;97.30;;;;;;5083670;28;20145;-74
2021/07/25 03:07:08;;;;;;;50.90;33.35;;;18.00;97.20;;;;;;5086332;28;20335;-74
2021/07/25 03:09:34;;;;;;;46.38;33.58;;;18.10;97.30;;;;;;5081106;28;20108;-74
2021/07/25 03:11:59;;;;;;;47.05;31.98;;;18.10;97.30;;;;;;5082280;28;20039;-74
2021/07/25 03:14:25;;;;;;;47.80;32.90;;;18.10;97.50;;;;;;5082318;28;20028;-74
2021/07/25 03:16:50;;;;;;;48.65;33.47;;;18.10;97.50;;;;;;5082983;28;20036;-74
2021/07/25 03:19:16;;;;;;;54.13;34.13;;;18.10;97.50;;;;;;5078943;28;20028;-74
2021/07/25 03:21:42;;;;;;;49.90;34.47;;;18.00;97.50;;;;;;5079783;28;20024;-74
2021/07/25 03:24:07;;;;;;;51.08;33.90;;;18.00;97.50;;;;;;5082498;28;20097;-74
2021/07/25 03:26:33;;;;;;;50.92;34.10;;;18.10;97.50;;;;;;5080948;28;20395;-75
2021/07/25 03:28:58;;;;;;;54.30;36.45;;;18.10;97.50;;;;;;5080513;28;20028;-74
2021/07/25 03:31:24;;;;;;;50.60;34.30;;;18.10;97.60;;;;;;5083228;28;20062;-72
2021/07/25 03:33:50;;;;;;;54.22;35.05;;;18.10;97.50;;;;;;5080507;28;20442;-74
2021/07/25 03:36:15;;;;;;;51.05;35.45;;;18.10;97.60;;;;;;5085650;28;20036;-74
2021/07/25 03:38:41;;;;;;;52.75;35.95;;;18.00;97.60;;;;;;5081071;28;20043;-74
2021/07/25 03:41:07;;;;;;;62.17;37.70;;;18.00;97.60;;;;;;5079274;28;20034;-75
2021/07/25 03:43:33;;;;;;;57.10;37.70;;;18.00;97.60;;;;;;5081551;28;20100;-74
2021/07/25 03:45:59;;;;;;;56.22;38.60;;;18.00;97.60;;;;;;5081837;28;20127;-74
2021/07/25 03:48:26;;;;;;;57.35;39.15;;;18.00;97.70;;;;;;5081624;28;20103;-74
2021/07/25 03:50:53;;;;;;;63.72;40.58;;;18.00;97.70;;;;;;5082957;28;20030;-74
2021/07/25 03:53:19;;;;;;;64.60;42.25;;;17.90;97.60;;;;;;5082215;28;20093;-74
2021/07/25 03:55:45;;;;;;;63.53;41.53;;;17.90;97.70;;;;;;5080948;28;20386;-74
2021/07/25 03:58:10;;;;;;;67.05;41.25;;;17.80;97.60;;;;;;5080095;28;20024;-75
2021/07/25 04:00:36;;;;;;;69.03;43.30;;;17.90;97.70;;;;;;5079254;28;20093;-74
2021/07/25 04:03:02;;;;;;;68.28;43.33;;;17.90;97.60;;;;;;5082178;28;20048;-74
2021/07/25 04:05:28;;;;;;;73.97;42.03;;;17.80;97.60;;;;;;5079809;28;20138;-74
2021/07/25 04:07:54;;;;;;;67.13;43.00;;;17.90;97.60;;;;;;5080177;28;20028;-74
2021/07/25 04:10:20;;;;;;;69.60;42.22;;;17.80;97.60;;;;;;5083568;28;20131;-74
2021/07/25 04:12:46;;;;;;;72.80;45.17;;;17.80;97.70;;;;;;5077634;28;20132;-70
2021/07/25 04:15:12;;;;;;;65.45;42.95;;;17.80;97.80;;;;;;5084041;28;20114;-70
2021/07/25 04:17:38;;;;;;;70.57;42.22;;;17.80;97.70;;;;;;5082937;28;20099;-69
2021/07/25 04:20:04;;;;;;;77.05;45.60;;;17.80;97.80;;;;;;5081645;28;20489;-68
2021/07/25 04:22:37;;;;;;;74.57;45.08;;;17.80;97.70;;;;;;5078462;28;20397;-66
2021/07/25 04:25:05;;;;;;;79.07;46.05;;;17.90;97.70;;;;;;5081571;28;20031;-66
2021/07/25 04:27:32;;;;;;;72.93;44.30;;;17.90;97.70;;;;;;5077700;28;20024;-66
2021/07/25 04:29:58;;;;;;;70.07;43.35;;;17.90;97.60;;;;;;5080513;28;20580;-65
2021/07/25 04:32:24;;;;;;;71.38;43.22;;;18.00;97.50;;;;;;5079480;28;20093;-65
2021/07/25 04:34:51;;;;;;;71.63;43.25;;;18.00;97.40;;;;;;5081794;28;20433;-65
2021/07/25 04:37:30;;;;;;;64.78;41.75;;;18.00;97.30;;;;;;5081009;28;20044;-65
2021/07/25 04:39:56;;;;;;;60.50;41.00;;;18.00;97.20;;;;;;5082731;28;20668;-65
2021/07/25 04:42:26;;;;;;;59.38;40.72;;;18.00;97.10;;;;;;5077747;28;20046;-65
2021/07/25 04:44:59;;;;;;;63.03;41.45;;;18.00;97.00;;;;;;5072640;28;20027;-65
2021/07/25 04:47:50;;;;;;;65.32;42.33;;;17.90;97.00;;;;;;5079411;28;20036;-65
2021/07/25 04:50:19;;;;;;;68.97;44.47;;;17.90;97.00;;;;;;5078289;28;20076;-65
2021/07/25 04:52:51;;;;;;;64.50;42.53;;;17.90;97.10;;;;;;5078009;28;20036;-65
2021/07/25 04:55:23;;;;;;;66.15;41.50;;;17.90;97.20;;;;;;5080476;28;20197;-65
2021/07/25 04:58:03;;;;;;;68.53;42.58;;;17.90;97.20;;;;;;5075615;28;20383;-65
2021/07/25 05:00:30;;;;;;;64.10;42.33;;;17.90;97.20;;;;;;5078891;28;20032;-65
2021/07/25 05:03:02;;;;;;;71.90;45.13;;;17.90;97.20;;;;;;5078391;28;20108;-65
2021/07/25 05:05:28;;;;;;;77.15;43.38;;;18.00;97.20;;;;;;5078949;28;20028;-67
2021/07/25 05:07:58;;;;;;;70.32;44.00;;;18.00;97.10;;;;;;5078487;28;20040;-65
2021/07/25 05:10:24;;;;;;;70.95;45.47;;;18.00;97.00;;;;;;5079374;28;20027;-65
2021/07/25 05:12:59;;;;;;;67.90;42.17;;;18.00;97.00;;;;;;5077371;28;20050;-65
2021/07/25 05:15:30;;;;;;;67.60;43.28;;;18.00;96.90;;;;;;5074389;28;20084;-65
2021/07/25 05:18:04;;;;;;;;;;;18.10;96.90;;;;;;5080515;28;20039;-65
2021/07/25 05:20:43;;;;;;;59.47;40.85;;;18.10;96.50;;;;;;5078913;28;20350;-65
2021/07/25 05:23:17;;;;;;;65.93;42.42;;;18.10;96.40;;;;;;5074481;28;20024;-65
2021/07/25 05:25:49;;;;;;;65.15;40.60;;;18.20;96.50;;;;;;5077879;28;20016;-65
2021/07/25 05:28:16;;;;;;;59.92;40.17;;;18.20;96.30;;;;;;5070888;28;20020;-65
2021/07/25 05:30:47;;;;;;;62.88;41.38;;;18.30;95.90;;;;;;5081046;28;20324;-66
2021/07/25 05:33:12;;;;;;;55.80;38.87;;;18.30;96.10;;;;;;5080422;28;20331;-66
2021/07/25 05:35:38;;;;;;;60.38;37.90;;;18.40;95.90;;;;;;5081225;28;20266;-65
2021/07/25 05:38:03;;;;;;;50.20;37.40;;;18.40;95.70;;;;;;5080487;28;20051;-65
2021/07/25 05:40:29;;;;;;;56.42;37.83;;;18.50;95.30;;;;;;5079550;28;20103;-66
2021/07/25 05:42:55;;;;;;;57.55;38.75;;;18.50;95.30;;;;;;5078367;28;20024;-66
2021/07/25 05:45:20;;;;;;;54.45;38.58;;;18.50;95.20;;;;;;5080694;28;20123;-65
2021/07/25 05:47:46;;;;;;;51.38;36.55;;;18.60;95.20;;;;;;5077601;28;20012;-66
2021/07/25 05:50:12;;;;;;;48.38;33.92;;;18.60;95.00;;;;;;5080187;28;20031;-66
2021/07/25 05:52:54;;;;;;;50.80;35.20;;;18.70;95.00;;;;;;5079417;28;20032;-65
2021/07/25 05:55:22;;;;;;;48.30;34.30;;;18.80;94.30;;;;;;5082370;28;20051;-66
2021/07/25 05:57:48;;;;;;;52.28;34.03;;;18.80;94.20;;;;;;5078451;28;20198;-65
2021/07/25 06:00:14;;;;;;;47.33;32.88;;;18.90;94.00;;;;;;5081580;28;20127;-65
2021/07/25 06:02:58;;;;;;;43.88;32.38;;;19.00;93.80;;;;;;5079278;28;20047;-66
2021/07/25 06:05:28;;;;;;;50.10;33.75;;;19.00;93.40;;;;;;5083019;28;20040;-66
2021/07/25 06:07:54;;;;;;;46.13;33.20;;;19.00;93.70;;;;;;5081152;28;20028;-65
2021/07/25 06:10:21;;;;;;;50.13;33.95;;;19.10;93.70;;;;;;5085961;28;20039;-65
2021/07/25 06:12:47;;;;;;;44.80;31.90;;;19.20;93.50;;;;;;5086388;28;20024;-66
2021/07/25 06:15:13;;;;;;;38.85;30.80;;;19.30;93.40;;;;;;5086621;28;20027;-65
2021/07/25 06:17:39;;;;;;;40.45;30.35;;;19.30;92.90;;;;;;5083786;28;20431;-66
2021/07/25 06:20:05;;;;;;;46.78;31.60;;;19.40;92.80;;;;;;5086067;28;20457;-65
2021/07/25 06:22:42;;;;;;;41.20;30.73;;;19.50;92.90;;;;;;5082346;28;20107;-65
2021/07/25 06:25:09;;;;;;;38.30;29.85;;;19.60;92.70;;;;;;5085486;28;20038;-65
2021/07/25 06:27:36;;;;;;;43.25;30.40;;;19.60;92.10;;;;;;5081402;28;20138;-66
2021/07/25 06:30:02;;;;;;;40.85;29.20;;;19.70;92.20;;;;;;5082432;28;20020;-66
2021/07/25 06:32:28;;;;;;;37.92;28.48;;;19.70;91.50;;;;;;5084005;28;20049;-66
2021/07/25 06:34:54;;;;;;;38.55;28.80;;;19.80;91.60;;;;;;5085399;28;20024;-66
2021/07/25 06:37:19;;;;;;;36.40;28.40;;;19.80;91.10;;;;;;5085295;28;20024;-65
2021/07/25 06:39:45;;;;;;;39.60;28.27;;;19.80;91.00;;;;;;5086195;28;20043;-66
2021/07/25 06:42:11;;;;;;;36.80;25.38;;;19.90;91.40;;;;;;5086375;28;20428;-66
2021/07/25 06:44:37;;;;;;;38.75;27.58;;;20.00;91.00;;;;;;5084515;28;20032;-65
2021/07/25 06:47:03;;;;;;;36.17;27.40;;;20.10;90.80;;;;;;5085986;28;20590;-66
2021/07/25 06:49:28;;;;;;;35.65;26.67;;;20.10;89.90;;;;;;5082635;28;20039;-66
2021/07/25 06:51:54;;;;;;;37.00;26.95;;;20.20;89.80;;;;;;5086293;28;20068;-66
2021/07/25 06:54:19;;;;;;;37.95;26.58;;;20.30;89.70;;;;;;5084164;28;20058;-66
2021/07/25 06:56:45;;;;;;;37.22;27.27;;;20.50;90.00;;;;;;5083866;28;20028;-66
2021/07/25 06:59:10;;;;;;;35.88;25.77;;;20.40;89.10;;;;;;5081204;28;20100;-66
2021/07/25 07:01:36;;;;;;;37.22;25.85;;;20.60;89.50;;;;;;5083858;28;20123;-66
2021/07/25 07:04:02;;;;;;;35.60;23.75;;;20.70;89.20;;;;;;5083458;28;20040;-66
2021/07/25 07:06:27;;;;;;;35.08;24.83;;;20.70;87.80;;;;;;5085729;28;20056;-65
2021/07/25 07:08:53;;;;;;;30.48;24.45;;;20.90;88.20;;;;;;5084035;28;20417;-66
2021/07/25 07:11:18;;;;;;;33.75;23.98;;;20.80;87.10;;;;;;5083358;28;20050;-66
2021/07/25 07:13:44;;;;;;;29.20;20.92;;;20.90;86.00;;;;;;5082851;28;20359;-66
2021/07/25 07:16:10;;;;;;;25.17;20.00;;;21.10;86.30;;;;;;5084041;28;20024;-66
2021/07/25 07:18:35;;;;;;;29.65;20.02;;;21.30;86.30;;;;;;5082893;28;20039;-66
2021/07/25 07:21:01;;;;;;;28.63;20.00;;;21.40;86.00;;;;;;5085223;28;20028;-66
2021/07/25 07:23:26;;;;;;;24.02;20.10;;;21.50;85.80;;;;;;5082293;28;20477;-66
2021/07/25 07:25:53;;;;;;;24.00;19.13;;;21.50;85.00;;;;;;5085283;28;20028;-66
2021/07/25 07:28:20;;;;;;;25.95;18.60;;;21.50;85.10;;;;;;5084016;28;20028;-66
2021/07/25 07:30:51;;;;;;;26.50;18.77;;;21.80;84.60;;;;;;5073201;28;20628;-66
2021/07/25 07:33:19;;;;;;;28.27;18.58;;;21.70;83.60;;;;;;5083312;28;20032;-66
2021/07/25 07:35:45;;;;;;;27.05;17.70;;;21.90;84.10;;;;;;5082266;28;20036;-66
2021/07/25 07:38:12;;;;;;;25.98;19.08;;;22.00;83.70;;;;;;5083898;28;20032;-66
2021/07/25 07:40:39;;;;;;;28.23;18.75;;;22.00;83.20;;;;;;5084469;28;20035;-66
2021/07/25 07:43:07;;;;;;;21.90;17.90;;;22.20;82.90;;;;;;5083027;28;20150;-66
2021/07/25 07:45:34;;;;;;;27.00;18.35;;;22.20;82.60;;;;;;5084898;28;20036;-66
2021/07/25 07:48:00;;;;;;;21.98;17.75;;;22.20;81.30;;;;;;5084451;28;20043;-66
2021/07/25 07:50:26;;;;;;;23.20;16.55;;;22.10;81.80;;;;;;5084465;28;20020;-66
2021/07/25 07:52:51;;;;;;;22.58;16.60;;;22.00;81.20;;;;;;5083307;28;20059;-66
2021/07/25 07:55:17;;;;;;;23.33;17.13;;;22.30;81.60;;;;;;5085126;28;20028;-66
2021/07/25 07:57:44;;;;;;;24.02;17.30;;;22.40;81.50;;;;;;5083742;28;20131;-66
2021/07/25 08:00:11;;;;;;;22.75;16.35;;;22.50;81.80;;;;;;5081813;28;20092;-66
2021/07/25 08:02:37;;;;;;;21.75;16.27;;;22.70;80.80;;;;;;5083103;28;20028;-66
2021/07/25 08:05:03;;;;;;;21.58;15.45;;;23.00;79.40;;;;;;5083569;28;20046;-66
2021/07/25 08:07:29;;;;;;;21.77;15.00;;;23.20;79.30;;;;;;5083694;28;20173;-66
2021/07/25 08:09:54;;;;;;;20.63;16.60;;;23.30;79.60;;;;;;5080843;28;20111;-66
2021/07/25 08:12:21;;;;;;;23.67;16.60;;;23.50;78.00;;;;;;5084402;28;20062;-66
2021/07/25 08:14:47;;;;;;;19.60;16.08;;;23.40;77.70;;;;;;5083589;28;20032;-66
2021/07/25 08:17:13;;;;;;;19.48;15.20;;;23.30;76.70;;;;;;5081213;28;20050;-66
2021/07/25 08:19:39;;;;;;;25.25;15.20;;;23.20;77.50;;;;;;5082739;28;20085;-66
2021/07/25 08:22:07;;;;;;;21.15;14.00;;;23.20;78.50;;;;;;5082385;28;20049;-66
2021/07/25 08:24:35;;;;;;;20.60;14.90;;;23.60;77.70;;;;;;5080312;28;20605;-68
2021/07/25 08:27:01;;;;;;;20.85;13.82;;;23.70;76.80;;;;;;5083012;28;20453;-66
2021/07/25 08:29:27;;;;;;;20.48;13.20;;;23.60;75.50;;;;;;5078529;28;20149;-66
2021/07/25 08:31:52;;;;;;;17.48;13.13;;;23.90;76.70;;;;;;5083440;28;20086;-66
2021/07/25 08:34:18;;;;;;;18.95;12.85;;;24.00;75.00;;;;;;5082376;28;20089;-66
2021/07/25 08:36:44;;;;;;;17.92;12.63;;;24.00;75.30;;;;;;5085038;28;20047;-66
2021/07/25 08:39:10;;;;;;;17.42;13.15;;;24.10;74.10;;;;;;5081012;28;20072;-66
2021/07/25 08:41:47;;;;;;;17.27;13.30;;;24.00;74.70;;;;;;5083969;28;20330;-66
2021/07/25 08:44:42;;;;;;;14.20;11.38;;;24.10;72.80;;;;;;5082159;28;20121;-66
2021/07/25 08:47:15;;;;;;;16.15;11.45;;;24.00;73.20;;;;;;5081056;28;20060;-66
2021/07/25 08:49:50;;;;;;;16.73;11.55;;;24.10;74.30;;;;;;5079758;28;20046;-66
2021/07/25 08:52:17;;;;;;;15.38;12.07;;;23.90;73.10;;;;;;5082909;28;20059;-66
2021/07/25 08:54:44;;;;;;;15.18;10.48;;;24.10;72.60;;;;;;5081260;28;20106;-66
2021/07/25 08:57:13;;;;;;;14.45;9.95;;;24.30;71.70;;;;;;5083500;28;20032;-67
2021/07/25 08:59:42;;;;;;;12.50;9.48;;;24.50;72.50;;;;;;5077865;28;20184;-67
2021/07/25 09:02:17;;;;;;;14.63;10.30;;;24.90;72.20;;;;;;5083522;28;20032;-66
2021/07/25 09:04:43;;;;;;;12.77;10.52;;;24.90;70.90;;;;;;5082265;28;20073;-66
2021/07/25 09:07:09;;;;;;;15.98;10.80;;;25.10;70.60;;;;;;5084295;28;20521;-66
2021/07/25 09:09:35;;;;;;;12.70;9.75;;;25.00;69.10;;;;;;5081727;28;20039;-66
2021/07/25 09:12:01;;;;;;;14.45;9.57;;;25.10;68.40;;;;;;5081105;28;20475;-66
2021/07/25 09:14:26;;;;;;;14.18;9.98;;;24.90;67.10;;;;;;5081966;28;20450;-66
2021/07/25 09:16:52;;;;;;;12.32;9.18;;;24.90;68.00;;;;;;5083393;28;20032;-66
2021/07/25 09:19:17;;;;;;;13.35;9.40;;;25.50;66.60;;;;;;5081109;28;20043;-65
2021/07/25 09:21:51;;;;;;;13.98;8.55;;;25.50;67.40;;;;;;5081572;28;20106;-66
2021/07/25 09:24:19;;;;;;;12.10;8.65;;;25.60;68.00;;;;;;5083693;28;20043;-67
2021/07/25 09:26:54;;;;;;;10.90;7.93;;;25.80;66.00;;;;;;5081599;28;20040;-67
2021/07/25 09:29:24;;;;;;;11.65;7.80;;;25.80;64.70;;;;;;5080489;28;20273;-66
2021/07/25 09:31:50;;;;;;;12.48;7.95;;;26.00;60.90;;;;;;5077829;28;20035;-66
2021/07/25 09:34:35;;;;;;;10.23;6.90;;;25.90;63.60;;;;;;5082379;28;20085;-66
2021/07/25 09:37:08;;;;;;;13.10;7.20;;;25.90;61.80;;;;;;5079610;28;20122;-66
2021/07/25 09:39:38;;;;;;;10.38;6.78;;;26.00;61.30;;;;;;5082846;28;20355;-66
2021/07/25 09:42:05;;;;;;;10.30;6.75;;;26.20;61.20;;;;;;5083131;28;20390;-66
2021/07/25 09:44:44;;;;;;;9.48;6.93;;;26.50;60.00;;;;;;5087561;28;20437;-66
2021/07/25 09:47:24;;;;;;;10.98;7.07;;;26.60;59.00;;;;;;5086073;28;20042;-65
2021/07/25 09:49:50;;;;;;;11.93;7.47;;;26.80;61.30;;;;;;5081022;28;20127;-66
2021/07/25 09:52:16;;;;;;;10.00;7.28;;;26.60;59.60;;;;;;5085377;28;20073;-65
2021/07/25 09:54:42;;;;;;;10.30;7.20;;;26.50;58.60;;;;;;5087807;28;20116;-66
2021/07/25 09:57:11;;;;;;;10.55;7.03;;;26.80;60.40;;;;;;5086298;28;20088;-66
2021/07/25 09:59:37;;;;;;;8.45;6.75;;;27.00;61.80;;;;;;5082335;28;20516;-66
2021/07/25 10:02:03;;;;;;;11.40;6.88;;;26.70;57.80;;;;;;5083460;28;20024;-66
2021/07/25 10:04:28;;;;;;;11.70;7.07;;;27.10;58.40;;;;;;5087558;28;20097;-66
2021/07/25 10:06:55;;;;;;;10.50;6.72;;;27.00;56.90;;;;;;5085572;28;20075;-66
2021/07/25 10:09:22;;;;;;;8.70;6.88;;;27.40;59.10;;;;;;5084821;28;20068;-66
2021/07/25 10:11:49;;;;;;;10.18;7.15;;;27.20;59.00;;;;;;5084187;28;20051;-67
2021/07/25 10:14:18;;;;;;;10.18;6.65;;;27.40;57.30;;;;;;5086454;28;20085;-66
2021/07/25 10:16:52;;;;;;;8.52;6.25;;;27.70;55.80;;;;;;5085328;28;20412;-66
2021/07/25 10:19:27;;;;;;;8.85;6.20;;;27.60;57.70;;;;;;5086252;28;20032;-67
2021/07/25 10:21:57;;;;;;;10.38;6.50;;;27.40;54.90;;;;;;5082991;28;20097;-67
2021/07/25 10:24:24;;;;;;;10.07;6.93;;;27.10;54.50;;;;;;5082358;28;20242;-66
2021/07/25 10:26:54;;;;;;;10.98;6.53;;;27.40;54.10;;;;;;5084862;28;20027;-66
2021/07/25 10:29:23;;;;;;;8.25;5.70;;;27.50;54.70;;;;;;5085218;28;20032;-66
2021/07/25 10:31:50;;;;;;;9.20;6.45;;;27.60;53.30;;;;;;5081158;28;20066;-66
2021/07/25 10:34:16;;;;;;;11.32;6.57;;;27.80;56.80;;;;;;5098777;28;20047;-66
2021/07/25 10:36:44;;;;;;;8.80;5.93;;;27.90;54.00;;;;;;5085465;28;20145;-66
2021/07/25 10:39:10;;;;;;;7.05;5.65;;;27.60;52.90;;;;;;5081593;28;20195;-67
2021/07/25 10:41:36;;;;;;;9.48;5.93;;;27.60;52.60;;;;;;5084655;28;20031;-67
2021/07/25 10:44:02;;;;;;;8.38;5.75;;;28.20;53.60;;;;;;5086774;28;20016;-66
2021/07/25 10:46:29;;;;;;;10.15;5.82;;;27.90;52.10;;;;;;5085685;28;20120;-67
2021/07/25 10:49:16;;;;;;;7.90;5.65;;;27.90;53.20;;;;;;5084219;28;20135;-67
2021/07/25 10:52:13;;;;;;;7.40;5.18;;;28.30;50.10;;;;;;5083835;28;20110;-66
2021/07/25 10:54:47;;;;;;;7.40;5.55;;;28.40;51.50;;;;;;5071462;28;20035;-66
2021/07/25 10:57:13;;;;;;;6.85;5.60;;;28.50;52.70;;;;;;5083758;28;20475;-67
2021/07/25 10:59:52;;;;;;;9.07;5.68;;;28.60;51.20;;;;;;5084858;28;20124;-67
2021/07/25 11:02:21;;;;;;;7.20;5.20;;;28.20;49.90;;;;;;5081438;28;20170;-67
2021/07/25 11:04:59;;;;;;;8.05;5.30;;;28.90;51.30;;;;;;5086422;28;20055;-67
2021/07/25 11:07:25;;;;;;;8.30;5.70;;;28.90;50.70;;;;;;5084773;28;20447;-67
2021/07/25 11:10:01;;;;;;;7.07;5.43;;;28.70;49.70;;;;;;5084259;28;20062;-67
2021/07/25 11:12:54;;;;;;;7.95;5.47;;;29.10;50.60;;;;;;5082132;28;20335;-67
2021/07/25 11:15:32;;;;;;;8.18;5.65;;;29.30;48.00;;;;;;5084276;28;20111;-67
2021/07/25 11:18:05;;;;;;;7.78;5.22;;;29.70;49.60;;;;;;5083875;28;20211;-67
2021/07/25 11:20:51;;;;;;;8.38;5.60;;;29.90;47.60;;;;;;5083436;28;20223;-67
2021/07/25 11:23:20;;;;;;;8.68;5.25;;;29.90;47.50;;;;;;5081628;28;20043;-67
2021/07/25 11:25:47;;;;;;;9.43;4.60;;;29.50;48.20;;;;;;5084901;28;20024;-67
2021/07/25 11:28:38;;;;;;;6.65;5.10;;;29.80;47.40;;;;;;5084111;28;20098;-67
2021/07/25 11:31:05;;;;;;;7.47;4.60;;;29.00;45.10;;;;;;5081886;28;20047;-67
2021/07/25 11:33:39;;;;;;;7.15;4.68;;;29.30;48.50;;;;;;5082651;28;20063;-67
2021/07/25 11:36:07;;;;;;;8.07;4.68;;;29.60;46.50;;;;;;5085681;28;20076;-67
2021/07/25 11:38:40;;;;;;;7.43;4.55;;;29.80;46.20;;;;;;5084874;28;20151;-67
2021/07/25 11:41:07;;;;;;;6.28;4.43;;;30.30;46.40;;;;;;5083959;28;20024;-67
2021/07/25 11:43:55;;;;;;;6.13;3.92;;;29.90;44.30;;;;;;5083886;28;20130;-67
2021/07/25 11:46:42;;;;;;;6.65;3.75;;;29.90;44.00;;;;;;5085485;28;20024;-67
2021/07/25 11:49:25;;;;;;;5.00;3.50;;;30.00;42.40;;;;;;5073076;28;20128;-67
2021/07/25 11:51:58;;;;;;;5.43;3.85;;;30.20;42.80;;;;;;5081007;28;20098;-67
2021/07/25 11:54:44;;;;;;;6.80;4.50;;;30.60;44.00;;;;;;5081967;28;20039;-67
2021/07/25 11:57:12;;;;;;;6.35;4.07;;;30.80;42.20;;;;;;5082640;28;20183;-67
2021/07/25 11:59:54;;;;;;;6.88;4.40;;;30.80;42.20;;;;;;5082563;28;20024;-68
2021/07/25 12:02:29;;;;;;;6.93;3.95;;;30.50;41.80;;;;;;5080013;28;20051;-67
2021/07/25 12:04:55;;;;;;;9.23;4.80;;;30.80;44.80;;;;;;5077921;28;20493;-67
2021/07/25 12:07:22;;;;;;;6.07;4.30;;;30.90;41.60;;;;;;5083401;28;20040;-67
2021/07/25 12:09:48;;;;;;;5.63;3.58;;;30.90;40.90;;;;;;5083991;28;20363;-67
2021/07/25 12:12:18;;;;;;;6.13;3.95;;;31.60;42.20;;;;;;5081778;28;20096;-68
2021/07/25 12:14:49;;;;;;;5.90;4.47;;;32.40;41.60;;;;;;5083654;28;20073;-68
2021/07/25 12:17:55;;;;;;;6.18;4.38;;;32.20;39.20;;;;;;5084385;28;20044;-67
2021/07/25 12:20:29;;;;;;;5.68;4.20;;;31.40;42.20;;;;;;5079548;28;20088;-67
2021/07/25 12:23:00;;;;;;;7.88;4.20;;;30.30;44.20;;;;;;5078915;28;20064;-67
2021/07/25 12:25:37;;;;;;;6.88;4.60;;;29.60;43.40;;;;;;5083103;28;20506;-67
2021/07/25 12:28:12;;;;;;;7.32;4.50;;;29.00;46.50;;;;;;5083104;28;20047;-67
2021/07/25 12:30:46;;;;;;;6.93;4.88;;;29.10;45.40;;;;;;5083727;28;20028;-66
2021/07/25 12:33:13;;;;;;;8.05;4.88;;;29.20;46.70;;;;;;5076742;28;20039;-67
2021/07/25 12:35:39;;;;;;;7.05;4.82;;;29.20;48.30;;;;;;5081410;28;20088;-67
2021/07/25 12:38:13;;;;;;;6.85;4.97;;;29.10;47.30;;;;;;5083692;28;20028;-67